Time;durP1;ratioP1;P1;durP2;ratioP2;P2;SDS_P1;SDS_P2;PMS_P1;PMS_P2;Temp;Humidity;BMP_temperature;BMP_pressure;BME280_temperature;BME280_humidity;BME280_pressure;Samples;Min_cycle;Max_cycle;Signal;HPM_P1;HPM_P2
2024/04/07 00:01:02;;;;;;;4.13;2.90;;;;;;;17.43;100.00;100867.06;6161590;28;20230;-70
2024/04/07 00:04:24;;;;;;;4.00;2.95;;;;;;;17.33;100.00;100860.16;6141181;28;20320;-72
2024/04/07 00:07:45;;;;;;;2.85;2.53;;;;;;;17.27;100.00;100858.97;6170928;28;20245;-71
2024/04/07 00:11:07;;;;;;;8.23;2.90;;;;;;;17.27;100.00;100852.69;6162459;28;20238;-71
2024/04/07 00:14:28;;;;;;;5.13;2.60;;;;;;;17.13;100.00;100837.94;6142522;28;20241;-71
2024/04/07 00:17:50;;;;;;;2.80;2.25;;;;;;;17.08;100.00;100834.94;6157468;28;20258;-71
2024/04/07 00:21:12;;;;;;;5.30;4.20;;;;;;;17.15;100.00;100837.75;6163508;28;20691;-71
2024/04/07 00:24:33;;;;;;;5.65;3.65;;;;;;;17.18;100.00;100841.00;6152285;28;20231;-71
2024/04/07 00:27:54;;;;;;;2.97;2.78;;;;;;;17.01;100.00;100833.09;6158835;28;20652;-71
2024/04/07 00:31:15;;;;;;;7.10;3.30;;;;;;;16.92;100.00;100826.00;6162859;28;20242;-71
2024/04/07 00:34:35;;;;;;;3.25;2.95;;;;;;;16.79;100.00;100826.56;6160459;28;20230;-71
2024/04/07 00:37:57;;;;;;;3.78;2.55;;;;;;;16.72;100.00;100820.13;6158121;28;20618;-70
2024/04/07 00:41:18;;;;;;;3.75;2.65;;;;;;;16.68;100.00;100819.66;6162642;28;20237;-70
2024/04/07 00:44:39;;;;;;;2.97;2.65;;;;;;;16.56;100.00;100815.59;6154423;28;20842;-71
2024/04/07 00:47:59;;;;;;;3.40;2.35;;;;;;;16.53;100.00;100815.09;6153073;28;20218;-70
2024/04/07 00:51:21;;;;;;;4.53;3.08;;;;;;;16.46;100.00;100806.75;6143010;28;20233;-71
2024/04/07 00:54:43;;;;;;;4.63;2.45;;;;;;;16.48;100.00;100801.16;6170740;28;20234;-71
2024/04/07 00:58:04;;;;;;;3.80;3.03;;;;;;;16.47;100.00;100794.00;6167928;28;20616;-71
2024/04/07 01:01:24;;;;;;;2.28;1.85;;;;;;;16.48;100.00;100787.56;6148578;28;20222;-70
2024/04/07 01:04:45;;;;;;;2.83;2.58;;;;;;;16.47;100.00;100788.56;6168046;28;20226;-70
2024/04/07 01:08:06;;;;;;;3.63;2.65;;;;;;;16.50;100.00;100783.63;6160947;28;20237;-70
2024/04/07 01:11:29;;;;;;;2.53;2.20;;;;;;;16.48;100.00;100779.38;6164138;28;20258;-71
2024/04/07 01:14:50;;;;;;;3.90;2.58;;;;;;;16.47;100.00;100764.94;6164177;28;20230;-71
2024/04/07 01:18:11;;;;;;;4.80;2.83;;;;;;;16.54;100.00;100756.94;6163547;28;20636;-71
2024/04/07 01:21:31;;;;;;;3.17;2.87;;;;;;;16.54;100.00;100756.94;6162525;28;20231;-70
2024/04/07 01:24:54;;;;;;;4.43;2.40;;;;;;;16.51;100.00;100768.16;6177296;28;20230;-71
2024/04/07 01:28:14;;;;;;;4.95;2.08;;;;;;;16.63;100.00;100774.91;6171314;28;20252;-71
2024/04/07 01:31:35;;;;;;;2.63;2.43;;;;;;;16.66;100.00;100774.56;6152038;28;20226;-71
2024/04/07 01:34:55;;;;;;;2.43;2.23;;;;;;;16.66;100.00;100785.44;6166646;28;20361;-71
2024/04/07 01:38:16;;;;;;;3.30;2.20;;;;;;;16.59;100.00;100789.91;6167355;28;20230;-71
2024/04/07 01:41:38;;;;;;;3.10;2.58;;;;;;;16.49;100.00;100790.13;6163310;28;20230;-71
2024/04/07 01:44:58;;;;;;;4.60;2.08;;;;;;;16.50;100.00;100788.25;6168076;28;20254;-71
2024/04/07 01:48:19;;;;;;;4.07;2.70;;;;;;;16.60;100.00;100787.03;6161894;28;20218;-70
2024/04/07 01:51:46;;;;;;;3.70;2.88;;;;;;;16.60;100.00;100795.19;6165183;28;20230;-71
2024/04/07 01:55:08;;;;;;;2.47;1.98;;;;;;;16.59;100.00;100785.31;6168729;28;20582;-70
2024/04/07 01:58:32;;;;;;;3.28;2.83;;;;;;;16.65;100.00;100773.72;6169710;28;20241;-70
2024/04/07 02:01:52;;;;;;;2.97;2.42;;;;;;;16.67;100.00;100773.53;6152311;28;20587;-70
2024/04/07 02:05:13;;;;;;;2.15;1.92;;;;;;;16.65;100.00;100765.53;6157139;28;20245;-71
2024/04/07 02:08:34;;;;;;;1.60;1.48;;;;;;;16.65;100.00;100765.53;6167558;28;20628;-71
2024/04/07 02:11:55;;;;;;;2.17;1.77;;;;;;;16.74;100.00;100760.91;6156752;28;20237;-70
2024/04/07 02:15:17;;;;;;;2.80;1.80;;;;;;;16.73;100.00;100756.47;6153262;28;20226;-70
2024/04/07 02:18:39;;;;;;;2.85;2.10;;;;;;;16.82;100.00;100762.72;6164626;28;20860;-70
2024/04/07 02:21:59;;;;;;;2.53;2.08;;;;;;;16.83;100.00;100762.56;6161135;28;21066;-70
2024/04/07 02:25:20;;;;;;;3.63;1.67;;;;;;;16.74;100.00;100758.19;6160645;28;20233;-70
2024/04/07 02:28:41;;;;;;;1.90;1.60;;;;;;;16.78;100.00;100760.38;6146698;28;20238;-70
2024/04/07 02:32:03;;;;;;;2.03;1.55;;;;;;;16.74;100.00;100760.91;6153092;28;20236;-70
2024/04/07 02:35:24;;;;;;;3.47;2.10;;;;;;;16.77;100.00;100757.84;6160802;28;21225;-70
2024/04/07 02:38:44;;;;;;;2.22;1.92;;;;;;;16.81;100.00;100756.44;6149300;28;20632;-70
2024/04/07 02:42:05;;;;;;;2.20;1.98;;;;;;;16.86;100.00;100748.56;6144093;28;20246;-70
2024/04/07 02:49:07;;;;;;;1.75;1.42;;;;;;;16.78;100.00;100749.47;6159465;28;20659;-71
2024/04/07 02:52:28;;;;;;;2.25;1.98;;;;;;;16.76;100.00;100759.69;6144179;28;20713;-71
2024/04/07 02:55:48;;;;;;;2.05;1.70;;;;;;;16.84;100.00;100753.34;6166959;28;20493;-71
2024/04/07 02:59:08;;;;;;;2.93;2.10;;;;;;;16.72;100.00;100754.78;6162096;28;20235;-70
2024/04/07 03:02:29;;;;;;;2.25;1.98;;;;;;;16.78;100.00;100759.53;6147596;28;20282;-71
2024/04/07 03:05:52;;;;;;;1.57;1.47;;;;;;;16.67;100.00;100768.94;6162726;28;20235;-71
2024/04/07 03:09:15;;;;;;;2.58;1.95;;;;;;;16.57;100.00;100770.16;6160494;28;20395;-71
2024/04/07 03:12:36;;;;;;;2.67;1.77;;;;;;;16.60;100.00;100764.38;6156035;28;20231;-71
2024/04/07 03:15:56;;;;;;;1.83;1.70;;;;;;;16.66;100.00;100769.97;6158431;28;20485;-70
2024/04/07 03:19:17;;;;;;;3.13;2.20;;;;;;;16.65;100.00;100762.81;6164368;28;20331;-71
2024/04/07 03:22:40;;;;;;;2.40;1.90;;;;;;;16.68;100.00;100765.19;6176499;28;20234;-72
2024/04/07 03:26:00;;;;;;;3.10;2.27;;;;;;;16.63;100.00;100778.47;6165000;28;20234;-71
2024/04/07 03:29:20;;;;;;;1.55;1.42;;;;;;;16.56;100.00;100782.09;6165767;28;20229;-71
2024/04/07 03:32:40;;;;;;;1.37;1.27;;;;;;;16.61;100.00;100782.41;6156005;28;20324;-72
2024/04/07 03:36:02;;;;;;;1.40;1.30;;;;;;;16.61;100.00;100771.50;6159839;28;20297;-72
2024/04/07 03:39:25;;;;;;;1.97;1.80;;;;;;;16.60;100.00;100778.84;6139546;28;20230;-71
2024/04/07 03:42:46;;;;;;;3.40;1.80;;;;;;;16.55;100.00;100766.78;6161310;28;20245;-72
2024/04/07 03:46:07;;;;;;;2.10;1.90;;;;;;;16.56;100.00;100763.88;6162258;28;20317;-71
2024/04/07 03:49:28;;;;;;;1.80;1.70;;;;;;;16.53;100.00;100758.81;6163172;28;20226;-71
2024/04/07 03:52:49;;;;;;;1.63;1.53;;;;;;;16.57;100.00;100751.97;6159579;28;20230;-72
2024/04/07 03:56:11;;;;;;;1.58;1.48;;;;;;;16.61;100.00;100753.31;6159487;28;20258;-71
2024/04/07 03:59:31;;;;;;;1.63;1.53;;;;;;;16.60;100.00;100758.94;6143506;28;20258;-72
2024/04/07 04:02:53;;;;;;;1.90;1.53;;;;;;;16.67;100.00;100747.16;6158197;28;20257;-72
2024/04/07 04:06:16;;;;;;;2.63;1.63;;;;;;;16.69;100.00;100755.13;6165891;28;20611;-71
2024/04/07 04:09:37;;;;;;;2.07;1.87;;;;;;;16.69;100.00;100772.31;6152160;28;20241;-72
2024/04/07 04:13:00;;;;;;;3.60;2.30;;;;;;;16.69;100.00;100771.47;6157313;28;20258;-71
2024/04/07 04:16:21;;;;;;;1.83;1.63;;;;;;;16.79;100.00;100767.50;6158895;28;20230;-71
2024/04/07 04:19:41;;;;;;;4.00;2.10;;;;;;;16.90;100.00;100776.31;6162282;28;20238;-72
2024/04/07 04:23:02;;;;;;;2.83;1.90;;;;;;;17.11;100.00;100799.13;6160472;28;20238;-72
2024/04/07 04:26:21;;;;;;;2.08;1.75;;;;;;;17.37;100.00;100806.97;6162680;28;20248;-71
2024/04/07 04:29:44;;;;;;;1.42;1.33;;;;;;;17.46;100.00;100820.34;6168511;28;20234;-72
2024/04/07 04:33:05;;;;;;;1.50;1.40;;;;;;;17.49;100.00;100830.03;6156614;28;20229;-71
2024/04/07 04:36:25;;;;;;;3.70;1.50;;;;;;;17.50;100.00;100842.69;6162970;28;20612;-71
2024/04/07 04:39:46;;;;;;;1.60;1.33;;;;;;;17.61;100.00;100834.06;6168795;28;20234;-71
2024/04/07 04:43:08;;;;;;;2.10;2.00;;;;;;;17.72;100.00;100854.59;6162815;28;20261;-72
2024/04/07 04:46:31;;;;;;;2.80;1.80;;;;;;;18.22;100.00;100860.28;6156322;28;20238;-72
2024/04/07 04:49:52;;;;;;;1.45;1.20;;;;;;;18.55;100.00;100872.59;6162799;28;20234;-72
2024/04/07 04:53:13;;;;;;;4.72;1.20;;;;;;;18.82;100.00;100890.19;6163650;28;20229;-72
2024/04/07 04:56:33;;;;;;;3.83;1.42;;;;;;;18.73;100.00;100914.03;6164724;28;20241;-72
2024/04/07 04:59:54;;;;;;;1.95;1.38;;;;;;;18.75;100.00;100906.53;6166406;28;20243;-72
2024/04/07 05:03:16;;;;;;;3.22;1.73;;;;;;;18.61;100.00;100911.97;6163680;28;20226;-71
2024/04/07 05:06:36;;;;;;;1.63;1.40;;;;;;;18.42;100.00;100937.88;6146392;28;20233;-71
2024/04/07 05:09:58;;;;;;;3.65;1.77;;;;;;;18.20;100.00;100946.97;6160313;28;20238;-72
2024/04/07 05:13:19;;;;;;;1.63;1.52;;;;;;;18.02;100.00;100951.91;6154583;28;20249;-72
2024/04/07 05:16:40;;;;;;;1.83;1.65;;;;;;;17.89;100.00;100973.47;6149653;28;20234;-71
2024/04/07 05:20:01;;;;;;;3.45;1.30;;;;;;;17.75;100.00;100993.34;6168402;28;20225;-72
2024/04/07 05:23:24;;;;;;;4.03;1.88;;;;;;;17.64;100.00;101024.59;6175929;28;20348;-71
2024/04/07 05:26:45;;;;;;;3.35;1.67;;;;;;;17.52;100.00;101036.91;6148768;28;20345;-71
2024/04/07 05:30:06;;;;;;;2.33;1.83;;;;;;;17.45;100.00;101079.50;6165874;28;20226;-71
2024/04/07 05:33:28;;;;;;;4.20;1.50;;;;;;;17.35;100.00;101101.50;6151130;28;20257;-71
2024/04/07 05:36:50;;;;;;;2.15;1.58;;;;;;;17.25;100.00;101108.19;6159484;28;20487;-72
2024/04/07 05:40:12;;;;;;;2.38;1.33;;;;;;;17.19;100.00;101109.69;6160802;28;20604;-71
2024/04/07 05:43:33;;;;;;;2.75;1.98;;;;;;;17.15;100.00;101118.38;6174105;28;20325;-71
2024/04/07 05:46:53;;;;;;;4.63;2.10;;;;;;;17.10;100.00;101118.94;6158242;28;20225;-71
2024/04/07 05:50:14;;;;;;;1.63;1.45;;;;;;;17.11;100.00;101119.75;6166488;28;20231;-71
2024/04/07 05:53:35;;;;;;;3.47;1.88;;;;;;;17.05;100.00;101124.03;6171589;28;20250;-71
2024/04/07 05:56:56;;;;;;;8.07;3.00;;;;;;;17.08;100.00;101145.50;6166685;28;20686;-73
2024/04/07 06:00:18;;;;;;;3.33;1.63;;;;;;;17.17;100.00;101146.31;6153897;28;20234;-72
2024/04/07 06:03:38;;;;;;;4.25;2.45;;;;;;;17.13;100.00;101147.69;6159143;28;20238;-72
2024/04/07 06:06:59;;;;;;;1.60;1.50;;;;;;;17.05;100.00;101159.44;6157730;28;20341;-72
2024/04/07 06:10:21;;;;;;;0.88;0.75;;;;;;;17.03;100.00;101164.22;6158025;28;20233;-71
2024/04/07 06:13:42;;;;;;;2.53;1.50;;;;;;;17.16;100.00;101180.06;6161326;28;20250;-72
2024/04/07 06:17:04;;;;;;;2.65;1.63;;;;;;;17.09;100.00;101177.16;6155246;28;20330;-72
2024/04/07 06:20:24;;;;;;;3.42;1.55;;;;;;;17.23;100.00;101179.19;6153653;28;20483;-71
2024/04/07 06:23:45;;;;;;;1.67;1.58;;;;;;;17.21;100.00;101189.41;6151946;28;20542;-72
2024/04/07 06:27:08;;;;;;;3.95;1.83;;;;;;;17.24;100.00;101190.94;6160183;28;20241;-72
2024/04/07 06:30:29;;;;;;;6.75;1.88;;;;;;;17.22;100.00;101185.66;6152208;28;20237;-70
2024/04/07 06:33:50;;;;;;;1.50;1.38;;;;;;;17.25;100.00;101185.31;6162187;28;20254;-71
2024/04/07 06:37:09;;;;;;;2.15;1.33;;;;;;;17.19;100.00;101205.06;6156382;28;20234;-71
2024/04/07 06:40:30;;;;;;;2.60;1.60;;;;;;;17.39;100.00;101205.59;6155252;28;20226;-71
2024/04/07 06:43:53;;;;;;;1.70;1.50;;;;;;;17.55;100.00;101198.25;6167458;28;20236;-71
2024/04/07 06:47:13;;;;;;;4.03;1.83;;;;;;;17.67;100.00;101203.34;6155907;28;20234;-72
2024/04/07 06:50:34;;;;;;;2.65;1.83;;;;;;;17.69;100.00;101201.31;6150893;28;20258;-71
2024/04/07 06:53:54;;;;;;;4.60;2.05;;;;;;;17.74;100.00;101210.66;6145270;28;20226;-71
2024/04/07 06:57:17;;;;;;;2.20;0.93;;;;;;;17.43;100.00;101205.06;6151345;28;20258;-72
2024/04/07 07:00:40;;;;;;;1.60;1.23;;;;;;;17.52;100.00;101216.84;6157819;28;20237;-71
2024/04/07 07:04:00;;;;;;;2.45;1.83;;;;;;;17.50;100.00;101236.09;6147438;28;20237;-70
2024/04/07 07:07:21;;;;;;;2.25;1.23;;;;;;;17.43;100.00;101239.66;6151265;28;20238;-71
2024/04/07 07:10:41;;;;;;;1.25;1.00;;;;;;;17.45;100.00;101235.72;6155907;28;21810;-71
2024/04/07 07:14:02;;;;;;;2.15;1.10;;;;;;;17.43;100.00;101236.91;6161770;28;20227;-71
2024/04/07 07:17:24;;;;;;;1.30;1.20;;;;;;;17.35;100.00;101243.25;6156506;28;21907;-70
2024/04/07 07:20:45;;;;;;;3.33;1.45;;;;;;;17.41;100.00;101223.47;6153190;28;20234;-71
2024/04/07 07:24:07;;;;;;;1.70;1.13;;;;;;;17.31;100.00;101230.13;6172595;28;20325;-70
2024/04/07 07:27:26;;;;;;;1.98;0.95;;;;;;;17.30;100.00;101236.56;6163089;28;20337;-71
2024/04/07 07:30:47;;;;;;;1.02;0.98;;;;;;;17.46;100.00;101236.56;6162351;28;20233;-71
2024/04/07 07:34:09;;;;;;;1.73;1.20;;;;;;;17.41;100.00;101233.53;6154084;28;20234;-69
2024/04/07 07:37:30;;;;;;;1.38;1.17;;;;;;;17.60;100.00;101254.16;6158987;28;20229;-70
2024/04/07 07:40:50;;;;;;;1.17;1.08;;;;;;;17.96;100.00;101247.28;6136894;28;20253;-70
2024/04/07 07:44:11;;;;;;;3.67;1.10;;;;;;;17.54;100.00;101226.53;6154916;28;20230;-70
2024/04/07 07:47:32;;;;;;;1.40;1.25;;;;;;;17.44;100.00;101247.66;6154931;28;20903;-69
2024/04/07 07:50:54;;;;;;;1.45;1.20;;;;;;;17.24;100.00;101245.44;6157352;28;20230;-69
2024/04/07 07:54:14;;;;;;;1.20;0.80;;;;;;;17.46;100.00;101236.56;6155690;28;20607;-70
2024/04/07 07:57:35;;;;;;;2.78;1.15;;;;;;;17.42;100.00;101221.56;6156469;28;20258;-70
2024/04/07 08:00:56;;;;;;;2.53;1.05;;;;;;;17.41;100.00;101261.63;6155866;28;20522;-70
2024/04/07 08:04:17;;;;;;;3.72;1.05;;;;;;;17.51;100.00;101270.53;6157371;28;20593;-69
2024/04/07 08:07:39;;;;;;;2.25;0.98;;;;;;;17.46;100.00;101253.78;6146077;28;20261;-69
2024/04/07 08:11:00;;;;;;;0.60;0.60;;;;;;;17.46;100.00;101275.59;6149895;28;20233;-69
2024/04/07 08:14:21;;;;;;;1.77;0.93;;;;;;;17.31;100.00;101299.09;6158706;28;20226;-72
2024/04/07 08:17:42;;;;;;;5.00;0.82;;;;;;;17.68;100.00;101303.22;6148651;28;20226;-71
2024/04/07 08:21:04;;;;;;;1.77;0.75;;;;;;;17.43;100.00;101314.09;6143936;28;20273;-71
2024/04/07 08:24:26;;;;;;;1.50;0.70;;;;;;;17.00;100.00;101303.47;6144284;28;20760;-71
2024/04/07 08:27:47;;;;;;;3.55;2.30;;;;;;;17.39;100.00;101301.84;6138186;28;20767;-69
2024/04/07 08:31:08;;;;;;;1.38;1.27;;;;;;;17.75;100.00;101310.56;6145866;28;20816;-70
2024/04/07 08:34:29;;;;;;;7.43;6.70;;;;;;;17.82;100.00;101305.25;6150312;28;20230;-67
2024/04/07 08:37:49;;;;;;;30.17;23.20;;;;;;;17.70;100.00;101296.56;6145270;28;20234;-68
2024/04/07 08:41:12;;;;;;;43.22;39.90;;;;;;;17.98;100.00;101295.16;6145340;28;20246;-73
2024/04/07 08:44:35;;;;;;;24.25;22.20;;;;;;;17.65;100.00;101287.22;6154552;28;20317;-73
2024/04/07 08:47:56;;;;;;;38.75;34.60;;;;;;;18.43;100.00;101294.53;6145929;28;20238;-74
2024/04/07 08:51:18;;;;;;;10.48;7.57;;;;;;;18.21;100.00;101293.38;6146544;28;20239;-73
2024/04/07 08:54:40;;;;;;;2.17;0.95;;;;;;;18.11;100.00;101306.38;6146302;28;20243;-71
2024/04/07 08:58:04;;;;;;;1.95;1.10;;;;;;;17.78;100.00;101315.66;6146230;28;20230;-72
2024/04/07 09:01:26;;;;;;;1.17;0.93;;;;;;;17.88;100.00;101310.88;6142474;28;20238;-72
2024/04/07 09:04:47;;;;;;;1.30;0.80;;;;;;;18.12;100.00;101301.78;6152256;28;20246;-72
2024/04/07 09:08:09;;;;;;;0.90;0.90;;;;;;;18.15;100.00;101299.56;6144132;28;20328;-72
2024/04/07 09:11:30;;;;;;;4.03;0.85;;;;;;;18.04;100.00;101294.50;6141782;28;20234;-72
2024/04/07 09:14:52;;;;;;;1.60;1.20;;;;;;;17.82;100.00;101291.59;6146325;28;21264;-72
2024/04/07 09:18:13;;;;;;;2.42;1.33;;;;;;;18.25;100.00;101286.56;6145432;28;20509;-73
2024/04/07 09:21:34;;;;;;;0.98;0.98;;;;;;;18.49;100.00;101295.72;6148406;28;20247;-72
2024/04/07 09:24:58;;;;;;;3.90;0.95;;;;;;;18.66;100.00;101303.66;6159344;28;20230;-71
2024/04/07 09:28:19;;;;;;;3.17;1.05;;;;;;;18.67;100.00;101299.91;6155930;28;20325;-72
2024/04/07 09:31:41;;;;;;;1.35;1.00;;;;;;;18.92;100.00;101276.88;6140376;28;20364;-72
2024/04/07 09:35:03;;;;;;;3.35;1.40;;;;;;;19.25;100.00;101285.72;6147534;28;20237;-71
2024/04/07 09:38:24;;;;;;;1.23;1.13;;;;;;;18.97;100.00;101290.88;6135254;28;20616;-72
2024/04/07 09:41:46;;;;;;;2.22;1.02;;;;;;;19.52;100.00;101303.50;6135478;28;20239;-73
2024/04/07 09:45:09;;;;;;;1.85;0.95;;;;;;;19.63;100.00;101303.06;6156133;28;20241;-73
2024/04/07 09:48:33;;;;;;;2.50;0.90;;;;;;;18.95;100.00;101333.06;6151190;28;20223;-71
2024/04/07 09:51:56;;;;;;;2.10;1.42;;;;;;;19.37;100.00;101308.03;6156239;28;20788;-69
2024/04/07 09:55:17;;;;;;;2.78;1.38;;;;;;;19.37;100.00;101306.16;6156251;28;20246;-69
2024/04/07 09:58:39;;;;;;;1.63;1.00;;;;;;;19.37;100.00;101324.44;6165463;28;20226;-72
2024/04/07 10:02:00;;;;;;;1.80;1.55;;;;;;;19.77;100.00;101318.66;6150908;28;20234;-68
2024/04/07 10:05:22;;;;;;;2.70;1.08;;;;;;;19.35;100.00;101301.91;6153293;28;20231;-72
2024/04/07 10:08:45;;;;;;;5.15;2.05;;;;;;;20.05;100.00;101305.22;6159136;28;20247;-74
2024/04/07 10:12:07;;;;;;;3.70;1.50;;;;;;;20.12;100.00;101287.84;6139551;28;20238;-72
2024/04/07 10:15:28;;;;;;;3.28;0.88;;;;;;;20.08;100.00;101302.94;6147956;28;21247;-70
2024/04/07 10:18:49;;;;;;;2.35;0.90;;;;;;;20.51;100.00;101296.66;6150478;28;20230;-71
2024/04/07 10:22:12;;;;;;;3.58;1.08;;;;;;;20.07;100.00;101320.41;6140640;28;20238;-73
2024/04/07 10:25:34;;;;;;;1.45;1.17;;;;;;;20.68;100.00;101303.63;6149923;28;20710;-73
2024/04/07 10:28:56;;;;;;;2.17;0.73;;;;;;;20.98;100.00;101304.41;6156481;28;20230;-70
2024/04/07 10:32:25;;;;;;;1.90;1.70;;;;;;;21.24;100.00;101303.88;6150263;28;20604;-74
2024/04/07 10:35:52;;;;;;;2.22;1.63;;;;;;;20.97;100.00;101302.69;6143962;28;20233;-72
2024/04/07 10:39:16;;;;;;;5.03;4.53;;;;;;;22.31;100.00;101302.69;6153852;28;20238;-71
2024/04/07 10:42:38;;;;;;;2.28;1.33;;;;;;;21.53;100.00;101292.78;6148505;28;20234;-70
2024/04/07 10:45:59;;;;;;;6.30;1.30;;;;;;;21.50;100.00;101301.41;6141700;28;20406;-69
2024/04/07 10:49:20;;;;;;;2.55;2.25;;;;;;;21.62;100.00;101313.56;6148032;28;20239;-67
2024/04/07 10:52:41;;;;;;;2.58;1.52;;;;;;;21.21;100.00;101296.91;6146135;28;20262;-68
2024/04/07 10:56:04;;;;;;;1.55;1.05;;;;;;;21.10;100.00;101318.50;6149108;28;20225;-69
2024/04/07 10:59:25;;;;;;;2.63;1.35;;;;;;;21.73;100.00;101306.69;6151793;28;20238;-69
2024/04/07 11:02:45;;;;;;;3.83;1.73;;;;;;;22.44;96.87;101300.91;6142801;28;20230;-69
2024/04/07 11:06:08;;;;;;;4.57;1.77;;;;;;;21.62;98.13;101315.44;6139009;28;20261;-68
2024/04/07 11:09:28;;;;;;;70.82;65.30;;;;;;;21.29;100.00;101312.38;6154686;28;20241;-70
2024/04/07 11:12:51;;;;;;;2.45;1.27;;;;;;;21.60;100.00;101325.75;6141889;28;20230;-71
2024/04/07 11:16:13;;;;;;;1.45;0.77;;;;;;;21.09;100.00;101314.06;6146912;28;20234;-67
2024/04/07 11:19:34;;;;;;;0.85;0.80;;;;;;;21.74;100.00;101325.69;6156203;28;20234;-67
2024/04/07 11:22:54;;;;;;;4.47;0.93;;;;;;;21.54;99.96;101329.31;6154949;28;20234;-67
2024/04/07 11:26:15;;;;;;;2.63;0.93;;;;;;;21.74;96.80;101327.56;6152470;28;20234;-66
2024/04/07 11:29:38;;;;;;;1.60;0.70;;;;;;;21.76;99.15;101314.53;6160644;28;20532;-66
2024/04/07 11:33:01;;;;;;;3.72;1.05;;;;;;;22.85;88.92;101322.91;6149428;28;20507;-67
2024/04/07 11:36:22;;;;;;;3.60;1.48;;;;;;;22.92;86.14;101340.28;6148045;28;20596;-67
2024/04/07 11:39:49;;;;;;;2.05;0.80;;;;;;;23.33;85.47;101327.31;6159683;28;20242;-67
2024/04/07 11:43:11;;;;;;;1.30;0.60;;;;;;;23.41;83.22;101342.78;6140471;28;20803;-66
2024/04/07 11:46:32;;;;;;;2.08;0.82;;;;;;;22.31;85.39;101349.41;6144151;28;20378;-67
2024/04/07 11:49:53;;;;;;;2.63;0.90;;;;;;;22.76;86.08;101330.47;6156997;28;20237;-67
2024/04/07 11:53:14;;;;;;;1.33;0.77;;;;;;;23.46;78.93;101321.84;6156938;28;20238;-68
2024/04/07 11:56:35;;;;;;;1.08;0.98;;;;;;;21.83;82.10;101327.28;6156805;28;20249;-70
2024/04/07 11:59:56;;;;;;;2.63;1.23;;;;;;;22.83;81.44;101336.84;6153708;28;20258;-68
2024/04/07 12:03:19;;;;;;;1.92;0.80;;;;;;;23.87;74.64;101337.34;6153457;28;20285;-69
2024/04/07 12:06:40;;;;;;;3.70;1.13;;;;;;;22.91;76.34;101347.69;6152543;28;20316;-68
2024/04/07 12:10:01;;;;;;;1.17;0.82;;;;;;;23.43;73.51;101336.03;6158710;28;20234;-69
2024/04/07 12:13:22;;;;;;;5.30;1.00;;;;;;;23.73;73.77;101328.22;6153396;28;20241;-68
2024/04/07 12:16:43;;;;;;;3.60;1.17;;;;;;;23.29;74.79;101326.00;6140775;28;20329;-68
2024/04/07 12:20:08;;;;;;;2.30;0.80;;;;;;;23.05;77.32;101326.59;6148004;28;20600;-69
2024/04/07 12:23:29;;;;;;;1.52;0.80;;;;;;;23.99;74.38;101321.88;6146419;28;20254;-69
2024/04/07 12:26:50;;;;;;;1.30;0.57;;;;;;;24.06;72.04;101320.00;6145254;28;20241;-69
2024/04/07 12:30:11;;;;;;;1.60;0.68;;;;;;;26.08;63.61;101338.41;6137807;28;20238;-67
2024/04/07 12:33:32;;;;;;;1.38;0.70;;;;;;;25.52;65.12;101326.50;6153059;28;20234;-68
2024/04/07 12:36:55;;;;;;;1.60;0.90;;;;;;;25.52;64.08;101343.06;6153172;28;20236;-68
2024/04/07 12:40:16;;;;;;;0.63;0.60;;;;;;;24.55;65.70;101334.94;6153721;28;20234;-69
2024/04/07 12:43:37;;;;;;;1.15;0.70;;;;;;;24.22;64.27;101341.63;6164098;28;20389;-69
2024/04/07 12:46:57;;;;;;;1.77;0.80;;;;;;;25.57;60.79;101334.97;6153006;28;20241;-68
2024/04/07 12:50:18;;;;;;;0.85;0.47;;;;;;;26.91;53.82;101325.00;6150791;28;20234;-69
2024/04/07 12:53:40;;;;;;;7.90;1.30;;;;;;;27.82;51.56;101327.53;6156097;28;20230;-68
2024/04/07 12:57:01;;;;;;;4.53;0.68;;;;;;;25.16;60.65;101324.34;6155226;28;20242;-69
2024/04/07 13:00:26;;;;;;;1.02;0.93;;;;;;;25.28;58.99;101330.84;6152813;28;20238;-69
2024/04/07 13:03:47;;;;;;;2.83;0.98;;;;;;;26.69;57.58;101326.50;6153842;28;20237;-67
2024/04/07 13:07:08;;;;;;;1.92;1.00;;;;;;;27.27;53.95;101327.69;6150992;28;20229;-67
2024/04/07 13:10:29;;;;;;;1.10;0.55;;;;;;;26.20;53.91;101340.44;6153650;28;20230;-67
2024/04/07 13:13:50;;;;;;;2.80;0.80;;;;;;;26.58;55.85;101333.66;6150232;28;20234;-67
2024/04/07 13:17:11;;;;;;;0.75;0.43;;;;;;;25.03;59.40;101340.13;6151430;28;20231;-68
2024/04/07 13:20:31;;;;;;;0.45;0.45;;;;;;;23.62;63.32;101337.97;6151576;28;20315;-69
2024/04/07 13:23:52;;;;;;;2.00;0.80;;;;;;;25.56;59.75;101324.97;6155347;28;20329;-67
2024/04/07 13:27:14;;;;;;;1.13;0.90;;;;;;;25.68;57.85;101330.66;6143363;28;20242;-67
2024/04/07 13:30:35;;;;;;;3.33;0.82;;;;;;;26.16;53.86;101326.22;6131541;28;20237;-67
2024/04/07 13:33:56;;;;;;;2.63;0.75;;;;;;;26.62;51.47;101321.03;6150587;28;20347;-67
2024/04/07 13:37:16;;;;;;;1.70;0.70;;;;;;;23.57;62.36;101329.47;6143779;28;20230;-67
2024/04/07 13:40:37;;;;;;;2.67;1.15;;;;;;;24.94;60.19;101316.59;6145251;28;20230;-67
2024/04/07 13:44:00;;;;;;;0.47;0.47;;;;;;;26.63;50.93;101311.69;6155558;28;20230;-66
2024/04/07 13:47:20;;;;;;;0.65;0.63;;;;;;;27.06;47.63;101311.59;6142403;28;20325;-67
2024/04/07 13:50:42;;;;;;;1.83;0.80;;;;;;;27.59;47.88;101298.69;6153248;28;20517;-67
2024/04/07 13:54:02;;;;;;;1.58;0.82;;;;;;;26.02;50.34;101319.09;6161353;28;20234;-67
2024/04/07 13:57:23;;;;;;;1.38;0.90;;;;;;;27.34;49.54;101298.03;6156408;28;20313;-67
2024/04/07 14:00:45;;;;;;;0.90;0.90;;;;;;;28.87;44.33;101301.50;6149745;28;20257;-67
2024/04/07 14:04:06;;;;;;;1.55;0.77;;;;;;;26.62;46.58;101300.81;6150791;28;20230;-67
2024/04/07 14:07:27;;;;;;;3.03;1.45;;;;;;;25.57;50.92;101309.25;6146804;28;21552;-67
2024/04/07 14:10:48;;;;;;;1.00;1.00;;;;;;;24.87;55.13;101294.56;6143883;28;20792;-67
2024/04/07 14:14:09;;;;;;;0.82;0.80;;;;;;;24.29;56.88;101285.41;6146840;28;20345;-67
2024/04/07 14:17:31;;;;;;;1.65;0.70;;;;;;;25.82;52.64;101297.16;6136958;28;20250;-68
2024/04/07 14:20:52;;;;;;;1.05;0.88;;;;;;;26.06;52.33;101300.97;6139822;28;20238;-67
2024/04/07 14:24:12;;;;;;;1.80;1.02;;;;;;;25.85;50.98;101295.84;6145697;28;20238;-67
2024/04/07 14:27:33;;;;;;;3.53;1.02;;;;;;;26.50;49.91;101283.31;6147274;28;20329;-66
2024/04/07 14:30:53;;;;;;;1.67;0.90;;;;;;;24.54;59.06;101291.06;6147764;28;20588;-66
2024/04/07 14:34:15;;;;;;;1.85;0.88;;;;;;;23.73;61.10;101301.53;6157171;28;21021;-65
2024/04/07 14:37:35;;;;;;;1.00;0.77;;;;;;;24.51;58.22;101284.06;6152007;28;20522;-65
2024/04/07 14:40:58;;;;;;;0.85;0.70;;;;;;;23.59;60.31;101283.31;6151614;28;20345;-68
2024/04/07 14:44:18;;;;;;;2.50;0.73;;;;;;;23.82;59.83;101278.22;6157044;28;20320;-65
2024/04/07 14:47:39;;;;;;;1.52;0.77;;;;;;;23.65;61.63;101282.50;6152302;28;20223;-66
2024/04/07 14:51:02;;;;;;;2.50;1.20;;;;;;;24.07;60.26;101274.84;6153696;28;20237;-67
2024/04/07 14:54:23;;;;;;;2.63;1.17;;;;;;;23.22;61.79;101286.63;6157264;28;20242;-66
2024/04/07 14:57:44;;;;;;;3.92;1.23;;;;;;;23.18;65.07;101282.59;6152411;28;20722;-67
2024/04/07 15:01:05;;;;;;;1.75;0.88;;;;;;;23.13;62.38;101265.88;6150990;28;20222;-67
2024/04/07 15:04:26;;;;;;;0.98;0.80;;;;;;;23.46;60.26;101244.78;6153972;28;20349;-67
2024/04/07 15:07:49;;;;;;;0.75;0.57;;;;;;;22.85;58.37;101265.16;6146022;28;20237;-66
2024/04/07 15:11:09;;;;;;;1.65;0.70;;;;;;;22.89;59.42;101248.03;6150378;28;22115;-67
2024/04/07 15:14:30;;;;;;;1.08;0.47;;;;;;;22.96;58.69;101237.06;6155382;28;20265;-67
2024/04/07 15:17:51;;;;;;;2.25;0.88;;;;;;;23.08;58.88;101242.78;6152252;28;20724;-67
2024/04/07 15:21:12;;;;;;;3.28;0.95;;;;;;;22.95;59.71;101235.34;6151803;28;20238;-66
2024/04/07 15:24:35;;;;;;;2.17;0.90;;;;;;;22.97;60.24;101234.09;6162583;28;20332;-67
2024/04/07 15:27:55;;;;;;;2.65;1.45;;;;;;;23.12;59.84;101224.78;6161710;28;20234;-66
2024/04/07 15:31:16;;;;;;;0.82;0.60;;;;;;;23.27;60.31;101225.47;6159876;28;20226;-67